sensor_id;sensor_type;location;lat;lon;timestamp;noise_LAeq;noise_LA_min;noise_LA_max;noise_LA01;noise_LA95
75467;Laerm;64050;50.634;3.062;2023-07-29T00:00:11;50.84;46.66;69.72;;
75467;Laerm;64050;50.634;3.062;2023-07-29T00:02:37;49.72;46.13;55.57;;
75467;Laerm;64050;50.634;3.062;2023-07-29T00:05:02;49.81;46.06;56.27;;
75467;Laerm;64050;50.634;3.062;2023-07-29T00:07:27;49.79;46.21;56.72;;
75467;Laerm;64050;50.634;3.062;2023-07-29T00:09:53;49.87;47.35;56.56;;
75467;Laerm;64050;50.634;3.062;2023-07-29T00:12:18;49.85;45.99;58.21;;
75467;Laerm;64050;50.634;3.062;2023-07-29T00:14:43;49.28;45.34;54.45;;
75467;Laerm;64050;50.634;3.062;2023-07-29T00:17:08;49.67;46.39;52.30;;
75467;Laerm;64050;50.634;3.062;2023-07-29T00:19:33;49.64;46.09;52.65;;
75467;Laerm;64050;50.634;3.062;2023-07-29T00:21:59;49.61;47.09;53.26;;
75467;Laerm;64050;50.634;3.062;2023-07-29T00:24:24;50.38;46.48;60.62;;
75467;Laerm;64050;50.634;3.062;2023-07-29T00:26:49;50.26;47.19;55.26;;
75467;Laerm;64050;50.634;3.062;2023-07-29T00:29:15;49.45;45.93;52.61;;
75467;Laerm;64050;50.634;3.062;2023-07-29T00:31:40;49.44;46.29;60.15;;
75467;Laerm;64050;50.634;3.062;2023-07-29T00:34:05;49.25;45.71;60.95;;
75467;Laerm;64050;50.634;3.062;2023-07-29T00:36:30;49.49;46.21;60.25;;
75467;Laerm;64050;50.634;3.062;2023-07-29T00:38:55;49.32;46.48;55.24;;
75467;Laerm;64050;50.634;3.062;2023-07-29T00:41:22;49.41;46.50;52.10;;
75467;Laerm;64050;50.634;3.062;2023-07-29T00:43:47;49.60;46.32;54.63;;
75467;Laerm;64050;50.634;3.062;2023-07-29T00:46:12;49.60;45.17;56.37;;
75467;Laerm;64050;50.634;3.062;2023-07-29T00:48:38;49.15;44.96;55.30;;
75467;Laerm;64050;50.634;3.062;2023-07-29T00:51:03;49.15;45.53;54.46;;
75467;Laerm;64050;50.634;3.062;2023-07-29T00:53:28;49.54;46.56;56.40;;
75467;Laerm;64050;50.634;3.062;2023-07-29T00:55:54;50.04;46.85;58.77;;
75467;Laerm;64050;50.634;3.062;2023-07-29T00:58:19;49.55;46.63;54.99;;
75467;Laerm;64050;50.634;3.062;2023-07-29T01:00:44;49.55;45.99;57.00;;
75467;Laerm;64050;50.634;3.062;2023-07-29T01:03:09;50.24;46.66;60.67;;
75467;Laerm;64050;50.634;3.062;2023-07-29T01:05:37;49.50;46.10;57.16;;
75467;Laerm;64050;50.634;3.062;2023-07-29T01:15:40;49.44;45.86;56.21;;
75467;Laerm;64050;50.634;3.062;2023-07-29T01:18:13;49.47;45.81;52.29;;
75467;Laerm;64050;50.634;3.062;2023-07-29T01:20:40;49.49;46.01;53.38;;
75467;Laerm;64050;50.634;3.062;2023-07-29T01:23:08;49.97;45.89;57.13;;
75467;Laerm;64050;50.634;3.062;2023-07-29T01:25:33;49.38;46.28;56.61;;
75467;Laerm;64050;50.634;3.062;2023-07-29T01:27:58;49.46;46.36;52.02;;
75467;Laerm;64050;50.634;3.062;2023-07-29T01:30:26;49.44;46.07;51.70;;
75467;Laerm;64050;50.634;3.062;2023-07-29T01:33:04;49.56;46.45;53.17;;
75467;Laerm;64050;50.634;3.062;2023-07-29T01:38:16;49.35;45.91;53.66;;
75467;Laerm;64050;50.634;3.062;2023-07-29T01:40:42;49.37;45.86;52.07;;
75467;Laerm;64050;50.634;3.062;2023-07-29T01:43:08;50.89;45.81;59.98;;
75467;Laerm;64050;50.634;3.062;2023-07-29T01:45:34;49.35;46.09;51.65;;
75467;Laerm;64050;50.634;3.062;2023-07-29T01:48:03;49.36;46.62;51.95;;
75467;Laerm;64050;50.634;3.062;2023-07-29T01:50:28;49.94;46.97;54.75;;
75467;Laerm;64050;50.634;3.062;2023-07-29T01:52:54;49.41;46.14;53.90;;
75467;Laerm;64050;50.634;3.062;2023-07-29T01:55:19;49.14;45.54;51.80;;
75467;Laerm;64050;50.634;3.062;2023-07-29T01:57:44;49.29;46.18;51.85;;
75467;Laerm;64050;50.634;3.062;2023-07-29T02:00:10;49.34;46.21;51.78;;
75467;Laerm;64050;50.634;3.062;2023-07-29T02:02:35;49.54;44.87;52.55;;
75467;Laerm;64050;50.634;3.062;2023-07-29T02:05:00;49.40;46.00;51.56;;
75467;Laerm;64050;50.634;3.062;2023-07-29T02:07:26;49.43;46.48;53.90;;
75467;Laerm;64050;50.634;3.062;2023-07-29T02:09:51;49.71;46.35;54.43;;
75467;Laerm;64050;50.634;3.062;2023-07-29T02:12:17;49.19;45.05;56.67;;
75467;Laerm;64050;50.634;3.062;2023-07-29T02:14:42;49.31;46.12;51.52;;
75467;Laerm;64050;50.634;3.062;2023-07-29T02:17:07;49.44;45.77;54.15;;
75467;Laerm;64050;50.634;3.062;2023-07-29T02:19:33;49.74;45.48;54.46;;
75467;Laerm;64050;50.634;3.062;2023-07-29T02:21:58;49.37;46.42;52.01;;
75467;Laerm;64050;50.634;3.062;2023-07-29T02:24:24;49.08;45.53;51.37;;
75467;Laerm;64050;50.634;3.062;2023-07-29T02:26:49;49.24;46.45;51.26;;
75467;Laerm;64050;50.634;3.062;2023-07-29T02:29:14;49.62;46.70;51.91;;
75467;Laerm;64050;50.634;3.062;2023-07-29T02:31:39;49.23;46.15;51.87;;
75467;Laerm;64050;50.634;3.062;2023-07-29T02:34:04;49.34;46.07;55.86;;
75467;Laerm;64050;50.634;3.062;2023-07-29T02:36:30;49.26;45.95;52.40;;
75467;Laerm;64050;50.634;3.062;2023-07-29T02:38:55;49.68;46.36;55.33;;
75467;Laerm;64050;50.634;3.062;2023-07-29T02:41:20;49.37;46.69;53.38;;
75467;Laerm;64050;50.634;3.062;2023-07-29T02:43:49;49.22;45.86;52.00;;
75467;Laerm;64050;50.634;3.062;2023-07-29T02:46:14;49.24;45.85;51.91;;
75467;Laerm;64050;50.634;3.062;2023-07-29T02:48:39;49.16;45.75;51.85;;
75467;Laerm;64050;50.634;3.062;2023-07-29T02:51:05;48.95;45.37;51.25;;
75467;Laerm;64050;50.634;3.062;2023-07-29T02:53:30;49.25;45.54;52.40;;
75467;Laerm;64050;50.634;3.062;2023-07-29T02:55:55;49.13;45.06;51.77;;
75467;Laerm;64050;50.634;3.062;2023-07-29T02:58:20;49.17;46.30;51.71;;
75467;Laerm;64050;50.634;3.062;2023-07-29T03:00:46;49.25;45.60;51.98;;
75467;Laerm;64050;50.634;3.062;2023-07-29T03:03:13;49.17;45.79;51.43;;
75467;Laerm;64050;50.634;3.062;2023-07-29T03:05:38;49.03;45.49;51.89;;
75467;Laerm;64050;50.634;3.062;2023-07-29T03:08:03;49.18;45.77;52.01;;
75467;Laerm;64050;50.634;3.062;2023-07-29T03:10:28;49.43;45.72;51.93;;
75467;Laerm;64050;50.634;3.062;2023-07-29T03:12:54;49.32;46.29;51.58;;
75467;Laerm;64050;50.634;3.062;2023-07-29T03:15:22;49.44;46.50;52.66;;
75467;Laerm;64050;50.634;3.062;2023-07-29T03:17:48;49.33;45.55;53.33;;
75467;Laerm;64050;50.634;3.062;2023-07-29T03:20:13;49.03;44.95;51.54;;
75467;Laerm;64050;50.634;3.062;2023-07-29T03:22:38;49.16;45.76;51.69;;
75467;Laerm;64050;50.634;3.062;2023-07-29T03:25:04;49.35;46.44;51.50;;
75467;Laerm;64050;50.634;3.062;2023-07-29T03:27:30;49.75;47.06;53.69;;
75467;Laerm;64050;50.634;3.062;2023-07-29T03:29:56;49.39;46.41;51.85;;
75467;Laerm;64050;50.634;3.062;2023-07-29T03:32:21;49.42;46.72;52.02;;
75467;Laerm;64050;50.634;3.062;2023-07-29T03:34:46;49.37;45.97;54.39;;
75467;Laerm;64050;50.634;3.062;2023-07-29T03:37:12;49.30;45.47;51.55;;
75467;Laerm;64050;50.634;3.062;2023-07-29T03:39:37;49.15;45.96;51.53;;
75467;Laerm;64050;50.634;3.062;2023-07-29T03:42:02;49.35;45.50;52.03;;
75467;Laerm;64050;50.634;3.062;2023-07-29T03:44:28;49.66;46.32;51.92;;
75467;Laerm;64050;50.634;3.062;2023-07-29T03:46:53;49.44;46.73;51.60;;
75467;Laerm;64050;50.634;3.062;2023-07-29T03:49:18;49.39;46.39;51.63;;
75467;Laerm;64050;50.634;3.062;2023-07-29T03:51:44;49.56;45.70;54.00;;
75467;Laerm;64050;50.634;3.062;2023-07-29T03:54:09;49.52;46.05;52.37;;
75467;Laerm;64050;50.634;3.062;2023-07-29T03:56:35;49.54;46.22;55.22;;
75467;Laerm;64050;50.634;3.062;2023-07-29T03:59:06;49.24;46.04;51.55;;
75467;Laerm;64050;50.634;3.062;2023-07-29T04:01:31;49.43;45.93;51.71;;
75467;Laerm;64050;50.634;3.062;2023-07-29T04:03:57;49.71;46.35;52.65;;
75467;Laerm;64050;50.634;3.062;2023-07-29T04:06:22;49.45;46.34;51.77;;
75467;Laerm;64050;50.634;3.062;2023-07-29T04:08:48;49.32;45.29;51.89;;
75467;Laerm;64050;50.634;3.062;2023-07-29T04:11:13;49.26;46.12;51.60;;
75467;Laerm;64050;50.634;3.062;2023-07-29T04:13:38;49.49;46.26;51.94;;
75467;Laerm;64050;50.634;3.062;2023-07-29T04:16:04;49.51;45.66;51.95;;
75467;Laerm;64050;50.634;3.062;2023-07-29T04:18:29;49.91;47.03;52.51;;
75467;Laerm;64050;50.634;3.062;2023-07-29T04:20:55;50.67;47.41;56.25;;
75467;Laerm;64050;50.634;3.062;2023-07-29T04:23:20;50.23;46.49;57.57;;
75467;Laerm;64050;50.634;3.062;2023-07-29T04:25:45;49.43;46.54;53.16;;
75467;Laerm;64050;50.634;3.062;2023-07-29T04:28:10;49.10;45.68;51.58;;
75467;Laerm;64050;50.634;3.062;2023-07-29T04:30:35;49.55;46.14;55.77;;
75467;Laerm;64050;50.634;3.062;2023-07-29T04:33:01;49.62;46.83;52.86;;
75467;Laerm;64050;50.634;3.062;2023-07-29T04:35:26;49.36;46.14;52.04;;
75467;Laerm;64050;50.634;3.062;2023-07-29T04:37:51;49.58;45.80;54.51;;
75467;Laerm;64050;50.634;3.062;2023-07-29T04:40:16;50.17;45.97;56.45;;
75467;Laerm;64050;50.634;3.062;2023-07-29T04:42:42;49.78;46.32;53.60;;
75467;Laerm;64050;50.634;3.062;2023-07-29T04:45:07;49.49;45.74;52.17;;
75467;Laerm;64050;50.634;3.062;2023-07-29T04:47:32;49.62;46.36;56.09;;
75467;Laerm;64050;50.634;3.062;2023-07-29T04:49:57;49.75;46.37;53.53;;
75467;Laerm;64050;50.634;3.062;2023-07-29T04:52:23;50.36;46.87;61.50;;
75467;Laerm;64050;50.634;3.062;2023-07-29T04:54:48;49.62;46.60;53.20;;
75467;Laerm;64050;50.634;3.062;2023-07-29T04:57:13;49.67;46.83;52.41;;
75467;Laerm;64050;50.634;3.062;2023-07-29T04:59:38;49.70;46.12;54.67;;
75467;Laerm;64050;50.634;3.062;2023-07-29T05:02:04;51.15;47.04;60.14;;
75467;Laerm;64050;50.634;3.062;2023-07-29T05:04:29;49.65;45.51;53.04;;
75467;Laerm;64050;50.634;3.062;2023-07-29T05:06:54;50.13;47.25;53.70;;
75467;Laerm;64050;50.634;3.062;2023-07-29T05:09:19;49.81;46.75;52.12;;
75467;Laerm;64050;50.634;3.062;2023-07-29T05:11:45;49.84;46.75;56.18;;
75467;Laerm;64050;50.634;3.062;2023-07-29T05:14:11;49.96;46.67;60.38;;
75467;Laerm;64050;50.634;3.062;2023-07-29T05:16:36;50.43;46.17;61.94;;
75467;Laerm;64050;50.634;3.062;2023-07-29T05:19:01;49.81;46.47;53.56;;
75467;Laerm;64050;50.634;3.062;2023-07-29T05:21:27;50.16;46.02;59.51;;
75467;Laerm;64050;50.634;3.062;2023-07-29T05:23:52;50.07;46.20;55.23;;
75467;Laerm;64050;50.634;3.062;2023-07-29T05:26:17;49.80;46.56;57.66;;
75467;Laerm;64050;50.634;3.062;2023-07-29T05:28:42;50.38;46.55;59.58;;
75467;Laerm;64050;50.634;3.062;2023-07-29T05:31:07;50.41;47.15;61.91;;
75467;Laerm;64050;50.634;3.062;2023-07-29T05:33:33;49.80;46.32;60.43;;
75467;Laerm;64050;50.634;3.062;2023-07-29T05:35:58;49.68;46.01;55.37;;
75467;Laerm;64050;50.634;3.062;2023-07-29T05:38:23;50.19;46.25;58.86;;
75467;Laerm;64050;50.634;3.062;2023-07-29T05:40:49;49.84;46.37;52.60;;
75467;Laerm;64050;50.634;3.062;2023-07-29T05:43:14;50.50;46.74;58.87;;
75467;Laerm;64050;50.634;3.062;2023-07-29T05:45:39;49.66;46.43;52.96;;
75467;Laerm;64050;50.634;3.062;2023-07-29T05:48:05;49.97;46.78;53.40;;
75467;Laerm;64050;50.634;3.062;2023-07-29T05:50:30;50.82;46.12;57.89;;
75467;Laerm;64050;50.634;3.062;2023-07-29T05:52:55;50.44;46.34;56.25;;
75467;Laerm;64050;50.634;3.062;2023-07-29T05:55:20;49.91;46.17;53.53;;
75467;Laerm;64050;50.634;3.062;2023-07-29T05:57:45;50.19;46.92;54.57;;
75467;Laerm;64050;50.634;3.062;2023-07-29T06:00:11;49.87;46.37;55.26;;
75467;Laerm;64050;50.634;3.062;2023-07-29T06:02:36;49.59;46.65;52.86;;
75467;Laerm;64050;50.634;3.062;2023-07-29T06:05:01;50.20;46.93;62.05;;
75467;Laerm;64050;50.634;3.062;2023-07-29T06:07:28;49.88;46.38;52.36;;
75467;Laerm;64050;50.634;3.062;2023-07-29T06:09:55;49.79;45.91;53.01;;
75467;Laerm;64050;50.634;3.062;2023-07-29T06:12:20;49.55;46.37;52.20;;
75467;Laerm;64050;50.634;3.062;2023-07-29T06:14:46;49.24;46.17;52.42;;
75467;Laerm;64050;50.634;3.062;2023-07-29T06:17:11;49.45;46.41;53.78;;
75467;Laerm;64050;50.634;3.062;2023-07-29T06:19:36;49.15;45.80;54.03;;
75467;Laerm;64050;50.634;3.062;2023-07-29T06:22:02;49.13;45.91;52.49;;
75467;Laerm;64050;50.634;3.062;2023-07-29T06:24:27;50.35;45.93;65.96;;
75467;Laerm;64050;50.634;3.062;2023-07-29T06:26:52;49.78;46.44;64.31;;
75467;Laerm;64050;50.634;3.062;2023-07-29T06:29:18;49.91;46.08;62.35;;
75467;Laerm;64050;50.634;3.062;2023-07-29T06:31:43;49.83;46.57;52.45;;
75467;Laerm;64050;50.634;3.062;2023-07-29T06:34:08;50.55;46.42;61.76;;
75467;Laerm;64050;50.634;3.062;2023-07-29T06:36:33;50.70;47.31;56.62;;
75467;Laerm;64050;50.634;3.062;2023-07-29T06:38:58;50.27;46.73;54.21;;
75467;Laerm;64050;50.634;3.062;2023-07-29T06:41:24;50.08;46.61;53.80;;
75467;Laerm;64050;50.634;3.062;2023-07-29T06:43:49;50.32;45.79;57.80;;
75467;Laerm;64050;50.634;3.062;2023-07-29T06:46:14;50.80;47.31;54.03;;
75467;Laerm;64050;50.634;3.062;2023-07-29T06:48:39;52.49;47.40;55.81;;
75467;Laerm;64050;50.634;3.062;2023-07-29T06:51:04;53.06;49.43;56.65;;
75467;Laerm;64050;50.634;3.062;2023-07-29T06:53:30;53.54;49.27;60.67;;
75467;Laerm;64050;50.634;3.062;2023-07-29T06:55:55;53.58;49.27;60.74;;
75467;Laerm;64050;50.634;3.062;2023-07-29T06:58:20;52.74;49.16;56.03;;
75467;Laerm;64050;50.634;3.062;2023-07-29T07:00:46;52.98;50.16;56.21;;
75467;Laerm;64050;50.634;3.062;2023-07-29T07:03:11;52.90;49.84;55.79;;
75467;Laerm;64050;50.634;3.062;2023-07-29T07:05:36;52.84;49.44;60.96;;
75467;Laerm;64050;50.634;3.062;2023-07-29T07:08:01;53.05;49.41;57.90;;
75467;Laerm;64050;50.634;3.062;2023-07-29T07:10:27;52.96;49.57;63.24;;
75467;Laerm;64050;50.634;3.062;2023-07-29T07:12:52;52.74;49.18;56.73;;
75467;Laerm;64050;50.634;3.062;2023-07-29T07:15:17;52.58;48.85;61.56;;
75467;Laerm;64050;50.634;3.062;2023-07-29T07:17:42;53.47;49.62;73.21;;
75467;Laerm;64050;50.634;3.062;2023-07-29T07:20:07;52.75;48.91;56.21;;
75467;Laerm;64050;50.634;3.062;2023-07-29T07:22:33;53.04;48.87;59.18;;
75467;Laerm;64050;50.634;3.062;2023-07-29T07:24:58;52.68;48.92;56.02;;
75467;Laerm;64050;50.634;3.062;2023-07-29T07:27:23;52.46;49.32;55.19;;
75467;Laerm;64050;50.634;3.062;2023-07-29T07:29:49;52.45;48.68;56.64;;
75467;Laerm;64050;50.634;3.062;2023-07-29T07:32:14;52.60;48.90;55.82;;
75467;Laerm;64050;50.634;3.062;2023-07-29T07:34:39;52.78;49.06;58.59;;
75467;Laerm;64050;50.634;3.062;2023-07-29T07:37:04;52.49;49.25;55.49;;
75467;Laerm;64050;50.634;3.062;2023-07-29T07:39:30;52.53;49.02;55.34;;
75467;Laerm;64050;50.634;3.062;2023-07-29T07:41:56;54.98;49.63;78.98;;
75467;Laerm;64050;50.634;3.062;2023-07-29T07:44:21;52.52;49.23;56.66;;
75467;Laerm;64050;50.634;3.062;2023-07-29T07:46:46;52.60;49.20;60.75;;
75467;Laerm;64050;50.634;3.062;2023-07-29T07:49:11;52.29;48.30;62.45;;
75467;Laerm;64050;50.634;3.062;2023-07-29T07:51:38;54.34;49.55;72.00;;
75467;Laerm;64050;50.634;3.062;2023-07-29T07:54:03;55.48;51.84;66.38;;
75467;Laerm;64050;50.634;3.062;2023-07-29T07:56:28;55.68;51.83;64.17;;
75467;Laerm;64050;50.634;3.062;2023-07-29T07:58:53;55.32;51.37;59.04;;
75467;Laerm;64050;50.634;3.062;2023-07-29T08:01:18;58.53;52.13;74.00;;
75467;Laerm;64050;50.634;3.062;2023-07-29T08:03:44;58.32;52.65;76.85;;
75467;Laerm;64050;50.634;3.062;2023-07-29T08:06:09;56.41;51.66;71.21;;
75467;Laerm;64050;50.634;3.062;2023-07-29T08:08:35;55.27;51.01;66.46;;
75467;Laerm;64050;50.634;3.062;2023-07-29T08:11:00;55.61;51.79;63.90;;
75467;Laerm;64050;50.634;3.062;2023-07-29T08:13:25;55.60;52.02;67.71;;
75467;Laerm;64050;50.634;3.062;2023-07-29T08:15:51;55.37;51.40;66.94;;
75467;Laerm;64050;50.634;3.062;2023-07-29T08:18:16;55.37;51.57;65.59;;
75467;Laerm;64050;50.634;3.062;2023-07-29T08:20:55;55.15;51.07;66.51;;
75467;Laerm;64050;50.634;3.062;2023-07-29T08:23:21;54.97;51.25;59.96;;
75467;Laerm;64050;50.634;3.062;2023-07-29T08:25:55;55.35;51.12;74.64;;
75467;Laerm;64050;50.634;3.062;2023-07-29T08:28:25;55.64;51.39;66.62;;
75467;Laerm;64050;50.634;3.062;2023-07-29T08:30:51;55.84;50.95;71.05;;
75467;Laerm;64050;50.634;3.062;2023-07-29T08:33:16;55.51;51.70;65.42;;
75467;Laerm;64050;50.634;3.062;2023-07-29T08:35:41;55.50;51.96;69.70;;
75467;Laerm;64050;50.634;3.062;2023-07-29T08:38:06;55.24;51.46;63.68;;
75467;Laerm;64050;50.634;3.062;2023-07-29T08:40:32;55.53;51.58;63.05;;
75467;Laerm;64050;50.634;3.062;2023-07-29T08:43:00;56.75;52.44;71.72;;
75467;Laerm;64050;50.634;3.062;2023-07-29T08:45:29;58.77;53.01;78.18;;
75467;Laerm;64050;50.634;3.062;2023-07-29T08:47:55;57.89;52.68;69.82;;
75467;Laerm;64050;50.634;3.062;2023-07-29T08:50:23;56.77;53.16;72.22;;
75467;Laerm;64050;50.634;3.062;2023-07-29T08:52:49;57.02;53.84;63.28;;
75467;Laerm;64050;50.634;3.062;2023-07-29T08:55:17;56.89;53.84;63.47;;
75467;Laerm;64050;50.634;3.062;2023-07-29T08:57:43;58.51;53.04;84.63;;
75467;Laerm;64050;50.634;3.062;2023-07-29T09:00:08;56.25;52.62;63.52;;
75467;Laerm;64050;50.634;3.062;2023-07-29T09:02:34;55.56;51.94;63.74;;
75467;Laerm;64050;50.634;3.062;2023-07-29T09:04:59;55.66;51.78;63.09;;
75467;Laerm;64050;50.634;3.062;2023-07-29T09:07:26;55.26;50.98;60.26;;
75467;Laerm;64050;50.634;3.062;2023-07-29T09:09:52;55.52;52.04;59.42;;
75467;Laerm;64050;50.634;3.062;2023-07-29T09:12:17;55.09;50.72;64.53;;
75467;Laerm;64050;50.634;3.062;2023-07-29T09:14:42;55.12;51.66;61.13;;
75467;Laerm;64050;50.634;3.062;2023-07-29T09:17:08;55.34;51.66;60.46;;
75467;Laerm;64050;50.634;3.062;2023-07-29T09:19:33;55.30;51.73;64.19;;
75467;Laerm;64050;50.634;3.062;2023-07-29T09:21:59;55.76;51.90;66.22;;
75467;Laerm;64050;50.634;3.062;2023-07-29T09:24:25;55.28;51.60;61.70;;
75467;Laerm;64050;50.634;3.062;2023-07-29T09:26:50;55.31;51.76;59.53;;
75467;Laerm;64050;50.634;3.062;2023-07-29T09:29:16;56.07;52.33;74.35;;
75467;Laerm;64050;50.634;3.062;2023-07-29T09:31:46;55.54;51.34;66.71;;
75467;Laerm;64050;50.634;3.062;2023-07-29T09:34:11;55.18;51.25;65.35;;
75467;Laerm;64050;50.634;3.062;2023-07-29T09:36:40;55.45;51.20;70.76;;
75467;Laerm;64050;50.634;3.062;2023-07-29T09:39:10;55.80;51.32;73.03;;
75467;Laerm;64050;50.634;3.062;2023-07-29T09:41:35;56.74;51.83;78.08;;
75467;Laerm;64050;50.634;3.062;2023-07-29T09:44:02;55.84;51.24;68.65;;
75467;Laerm;64050;50.634;3.062;2023-07-29T09:46:32;56.91;51.52;69.90;;
75467;Laerm;64050;50.634;3.062;2023-07-29T09:48:58;56.09;51.57;66.74;;
75467;Laerm;64050;50.634;3.062;2023-07-29T09:51:23;55.88;50.85;71.14;;
75467;Laerm;64050;50.634;3.062;2023-07-29T09:53:49;56.36;51.62;65.49;;
75467;Laerm;64050;50.634;3.062;2023-07-29T09:56:15;55.22;51.06;62.73;;
75467;Laerm;64050;50.634;3.062;2023-07-29T09:58:42;55.61;51.86;63.21;;
75467;Laerm;64050;50.634;3.062;2023-07-29T10:01:08;58.24;51.89;79.82;;
75467;Laerm;64050;50.634;3.062;2023-07-29T10:03:33;57.17;53.35;69.64;;
75467;Laerm;64050;50.634;3.062;2023-07-29T10:06:00;57.13;53.31;64.09;;
75467;Laerm;64050;50.634;3.062;2023-07-29T10:08:25;57.08;53.46;69.34;;
75467;Laerm;64050;50.634;3.062;2023-07-29T10:10:50;56.87;53.38;65.37;;
75467;Laerm;64050;50.634;3.062;2023-07-29T10:13:17;56.82;52.76;60.46;;
75467;Laerm;64050;50.634;3.062;2023-07-29T10:15:42;56.77;52.98;64.34;;
75467;Laerm;64050;50.634;3.062;2023-07-29T10:18:08;56.82;52.67;63.69;;
75467;Laerm;64050;50.634;3.062;2023-07-29T10:20:34;56.70;53.36;60.08;;
75467;Laerm;64050;50.634;3.062;2023-07-29T10:23:00;56.63;52.77;60.66;;
75467;Laerm;64050;50.634;3.062;2023-07-29T10:25:26;56.78;53.39;62.62;;
75467;Laerm;64050;50.634;3.062;2023-07-29T10:28:07;56.87;53.35;69.15;;
75467;Laerm;64050;50.634;3.062;2023-07-29T10:30:33;56.98;53.20;64.56;;
75467;Laerm;64050;50.634;3.062;2023-07-29T10:33:01;56.74;53.07;62.12;;
75467;Laerm;64050;50.634;3.062;2023-07-29T10:35:27;57.06;53.65;64.45;;
75467;Laerm;64050;50.634;3.062;2023-07-29T10:37:52;57.00;53.35;65.05;;
75467;Laerm;64050;50.634;3.062;2023-07-29T10:40:18;56.89;52.97;68.36;;
75467;Laerm;64050;50.634;3.062;2023-07-29T10:45:36;57.43;52.70;70.29;;
75467;Laerm;64050;50.634;3.062;2023-07-29T10:48:05;56.87;53.47;63.83;;
75467;Laerm;64050;50.634;3.062;2023-07-29T10:50:31;56.72;53.05;61.96;;
75467;Laerm;64050;50.634;3.062;2023-07-29T10:52:56;56.74;52.68;66.89;;
75467;Laerm;64050;50.634;3.062;2023-07-29T10:55:23;56.89;53.09;66.87;;
75467;Laerm;64050;50.634;3.062;2023-07-29T10:57:49;56.74;53.34;63.08;;
75467;Laerm;64050;50.634;3.062;2023-07-29T11:00:15;56.78;52.97;62.10;;
75467;Laerm;64050;50.634;3.062;2023-07-29T11:02:40;57.03;53.35;62.70;;
75467;Laerm;64050;50.634;3.062;2023-07-29T11:05:07;57.07;53.41;66.29;;
75467;Laerm;64050;50.634;3.062;2023-07-29T11:07:42;56.80;52.60;64.48;;
75467;Laerm;64050;50.634;3.062;2023-07-29T11:10:08;56.89;52.93;64.42;;
75467;Laerm;64050;50.634;3.062;2023-07-29T11:18:21;57.00;52.82;65.91;;
75467;Laerm;64050;50.634;3.062;2023-07-29T11:20:31;56.96;52.19;66.03;;
75467;Laerm;64050;50.634;3.062;2023-07-29T11:22:57;57.01;53.53;67.12;;
75467;Laerm;64050;50.634;3.062;2023-07-29T11:25:23;56.84;53.62;62.15;;
75467;Laerm;64050;50.634;3.062;2023-07-29T11:27:48;56.85;53.00;68.29;;
75467;Laerm;64050;50.634;3.062;2023-07-29T11:30:14;56.99;52.85;65.37;;
75467;Laerm;64050;50.634;3.062;2023-07-29T11:32:40;56.95;53.38;62.75;;
75467;Laerm;64050;50.634;3.062;2023-07-29T11:37:41;56.92;53.33;62.87;;
75467;Laerm;64050;50.634;3.062;2023-07-29T11:40:06;57.09;52.86;62.86;;
75467;Laerm;64050;50.634;3.062;2023-07-29T11:42:33;56.85;53.09;65.66;;
75467;Laerm;64050;50.634;3.062;2023-07-29T11:44:59;56.75;53.36;61.47;;
75467;Laerm;64050;50.634;3.062;2023-07-29T11:47:24;57.67;53.78;63.18;;
75467;Laerm;64050;50.634;3.062;2023-07-29T11:49:49;57.42;53.92;65.42;;
75467;Laerm;64050;50.634;3.062;2023-07-29T11:52:15;57.17;53.14;63.69;;
75467;Laerm;64050;50.634;3.062;2023-07-29T11:54:44;57.47;52.41;70.77;;
75467;Laerm;64050;50.634;3.062;2023-07-29T11:57:10;57.78;53.07;67.30;;
75467;Laerm;64050;50.634;3.062;2023-07-29T11:59:35;59.68;56.68;66.46;;
75467;Laerm;64050;50.634;3.062;2023-07-29T12:02:01;59.67;55.12;65.63;;
75467;Laerm;64050;50.634;3.062;2023-07-29T12:04:27;57.88;54.23;68.65;;
75467;Laerm;64050;50.634;3.062;2023-07-29T12:06:53;56.99;53.27;64.95;;
75467;Laerm;64050;50.634;3.062;2023-07-29T12:09:18;57.51;52.87;68.18;;
75467;Laerm;64050;50.634;3.062;2023-07-29T12:11:44;56.97;53.09;69.24;;
75467;Laerm;64050;50.634;3.062;2023-07-29T12:14:09;56.93;53.46;65.23;;
75467;Laerm;64050;50.634;3.062;2023-07-29T12:16:41;57.17;53.32;65.82;;
75467;Laerm;64050;50.634;3.062;2023-07-29T12:19:07;57.12;53.22;67.52;;
75467;Laerm;64050;50.634;3.062;2023-07-29T12:21:32;56.91;53.57;67.52;;
75467;Laerm;64050;50.634;3.062;2023-07-29T12:23:58;57.15;53.09;69.21;;
75467;Laerm;64050;50.634;3.062;2023-07-29T12:26:26;57.67;53.39;73.34;;
75467;Laerm;64050;50.634;3.062;2023-07-29T12:28:52;57.07;53.50;64.07;;
75467;Laerm;64050;50.634;3.062;2023-07-29T12:31:17;57.05;52.65;69.29;;
75467;Laerm;64050;50.634;3.062;2023-07-29T12:33:42;56.92;53.58;63.50;;
75467;Laerm;64050;50.634;3.062;2023-07-29T12:36:07;57.00;53.51;62.40;;
75467;Laerm;64050;50.634;3.062;2023-07-29T12:38:33;56.95;52.72;65.92;;
75467;Laerm;64050;50.634;3.062;2023-07-29T12:40:58;57.09;52.20;65.12;;
75467;Laerm;64050;50.634;3.062;2023-07-29T12:43:24;57.87;53.89;64.45;;
75467;Laerm;64050;50.634;3.062;2023-07-29T12:45:49;58.76;53.77;68.10;;
75467;Laerm;64050;50.634;3.062;2023-07-29T12:48:15;59.25;55.74;71.75;;
75467;Laerm;64050;50.634;3.062;2023-07-29T12:50:40;58.73;55.72;62.33;;
75467;Laerm;64050;50.634;3.062;2023-07-29T12:53:06;57.78;53.07;65.62;;
75467;Laerm;64050;50.634;3.062;2023-07-29T12:55:31;57.33;54.07;61.11;;
75467;Laerm;64050;50.634;3.062;2023-07-29T12:57:57;56.92;53.71;60.58;;
75467;Laerm;64050;50.634;3.062;2023-07-29T13:00:24;56.97;53.68;63.29;;
75467;Laerm;64050;50.634;3.062;2023-07-29T13:02:49;57.06;53.53;65.01;;
75467;Laerm;64050;50.634;3.062;2023-07-29T13:05:14;57.10;53.46;67.22;;
75467;Laerm;64050;50.634;3.062;2023-07-29T13:07:40;56.84;53.44;61.96;;
75467;Laerm;64050;50.634;3.062;2023-07-29T13:10:05;56.88;52.85;60.55;;
75467;Laerm;64050;50.634;3.062;2023-07-29T13:12:30;56.79;53.19;61.90;;
75467;Laerm;64050;50.634;3.062;2023-07-29T13:14:56;56.81;53.19;61.85;;
75467;Laerm;64050;50.634;3.062;2023-07-29T13:17:21;56.99;53.27;60.48;;
75467;Laerm;64050;50.634;3.062;2023-07-29T13:19:47;56.79;53.23;61.67;;
75467;Laerm;64050;50.634;3.062;2023-07-29T13:22:12;56.83;53.18;61.71;;
75467;Laerm;64050;50.634;3.062;2023-07-29T13:24:37;56.81;52.95;60.66;;
75467;Laerm;64050;50.634;3.062;2023-07-29T13:27:03;57.10;53.11;68.63;;
75467;Laerm;64050;50.634;3.062;2023-07-29T13:29:28;59.12;53.79;63.18;;
75467;Laerm;64050;50.634;3.062;2023-07-29T13:31:53;57.60;53.94;63.04;;
75467;Laerm;64050;50.634;3.062;2023-07-29T13:34:18;57.26;52.99;61.51;;
75467;Laerm;64050;50.634;3.062;2023-07-29T13:36:43;56.79;53.64;61.12;;
75467;Laerm;64050;50.634;3.062;2023-07-29T13:39:09;56.99;53.29;61.48;;
75467;Laerm;64050;50.634;3.062;2023-07-29T13:41:34;56.86;53.07;62.96;;
75467;Laerm;64050;50.634;3.062;2023-07-29T13:43:59;57.05;53.40;60.42;;
75467;Laerm;64050;50.634;3.062;2023-07-29T13:46:24;57.04;53.75;61.03;;
75467;Laerm;64050;50.634;3.062;2023-07-29T13:48:49;57.37;53.21;65.83;;
75467;Laerm;64050;50.634;3.062;2023-07-29T13:51:15;56.96;53.46;60.72;;
75467;Laerm;64050;50.634;3.062;2023-07-29T13:53:40;57.13;53.38;63.36;;
75467;Laerm;64050;50.634;3.062;2023-07-29T13:56:05;56.93;52.62;63.78;;